sensor_id;sensor_type;location;lat;lon;timestamp;pressure;altitude;pressure_sealevel;temperature;humidity
21401;BME280;18038;50.166;18.908;2023-04-29T00:01:09;97759.03;;;8.47;48.51
21401;BME280;18038;50.166;18.908;2023-04-29T00:04:32;97755.34;;;8.27;49.37
21401;BME280;18038;50.166;18.908;2023-04-29T00:07:39;97756.66;;;8.16;49.41
21401;BME280;18038;50.166;18.908;2023-04-29T00:10:46;97755.47;;;8.04;49.70
21401;BME280;18038;50.166;18.908;2023-04-29T00:13:52;97743.53;;;8.00;49.91
21401;BME280;18038;50.166;18.908;2023-04-29T00:16:59;97742.97;;;7.89;50.04
21401;BME280;18038;50.166;18.908;2023-04-29T00:20:10;97754.00;;;7.72;50.40
21401;BME280;18038;50.166;18.908;2023-04-29T00:23:17;97748.22;;;7.68;50.82
21401;BME280;18038;50.166;18.908;2023-04-29T00:26:32;97748.31;;;7.75;50.14
21401;BME280;18038;50.166;18.908;2023-04-29T00:29:38;97740.78;;;7.78;50.15
21401;BME280;18038;50.166;18.908;2023-04-29T00:32:45;97736.03;;;7.59;50.56
21401;BME280;18038;50.166;18.908;2023-04-29T00:35:54;97739.22;;;7.84;50.13
21401;BME280;18038;50.166;18.908;2023-04-29T00:39:07;97727.16;;;7.66;51.20
21401;BME280;18038;50.166;18.908;2023-04-29T00:42:17;97730.44;;;7.54;51.65
21401;BME280;18038;50.166;18.908;2023-04-29T00:45:24;97728.31;;;7.49;52.11
21401;BME280;18038;50.166;18.908;2023-04-29T00:48:31;97722.09;;;7.42;52.74
21401;BME280;18038;50.166;18.908;2023-04-29T00:51:44;97717.47;;;7.36;53.05
21401;BME280;18038;50.166;18.908;2023-04-29T00:54:51;97728.28;;;7.34;53.25
21401;BME280;18038;50.166;18.908;2023-04-29T00:58:05;97727.00;;;7.30;53.47
21401;BME280;18038;50.166;18.908;2023-04-29T01:01:12;97728.84;;;7.30;53.28
21401;BME280;18038;50.166;18.908;2023-04-29T01:04:18;97729.38;;;7.25;53.80
21401;BME280;18038;50.166;18.908;2023-04-29T01:07:33;97733.56;;;7.19;53.69
21401;BME280;18038;50.166;18.908;2023-04-29T01:10:53;97729.09;;;7.20;53.49
21401;BME280;18038;50.166;18.908;2023-04-29T01:14:06;97734.50;;;7.27;53.12
21401;BME280;18038;50.166;18.908;2023-04-29T01:17:17;97736.25;;;7.34;52.94
21401;BME280;18038;50.166;18.908;2023-04-29T01:20:30;97734.78;;;7.32;52.99
21401;BME280;18038;50.166;18.908;2023-04-29T01:23:47;97742.56;;;7.33;52.91
21401;BME280;18038;50.166;18.908;2023-04-29T01:27:09;97735.69;;;7.24;52.97
21401;BME280;18038;50.166;18.908;2023-04-29T01:30:33;97738.44;;;7.16;53.90
21401;BME280;18038;50.166;18.908;2023-04-29T01:34:09;97738.75;;;7.13;54.17
21401;BME280;18038;50.166;18.908;2023-04-29T01:37:30;97736.06;;;7.21;54.33
21401;BME280;18038;50.166;18.908;2023-04-29T01:40:59;97738.06;;;7.19;54.34
21401;BME280;18038;50.166;18.908;2023-04-29T01:44:28;97728.72;;;7.23;54.50
21401;BME280;18038;50.166;18.908;2023-04-29T01:47:36;97737.25;;;7.18;54.78
21401;BME280;18038;50.166;18.908;2023-04-29T01:50:46;97733.81;;;7.10;54.58
21401;BME280;18038;50.166;18.908;2023-04-29T01:53:53;97731.88;;;7.04;54.79
21401;BME280;18038;50.166;18.908;2023-04-29T01:57:03;97723.63;;;6.98;54.61
21401;BME280;18038;50.166;18.908;2023-04-29T02:00:27;97733.59;;;6.96;55.00
21401;BME280;18038;50.166;18.908;2023-04-29T02:03:37;97720.31;;;6.96;54.78
21401;BME280;18038;50.166;18.908;2023-04-29T02:06:45;97724.34;;;6.92;55.06
21401;BME280;18038;50.166;18.908;2023-04-29T02:09:53;97718.81;;;6.79;54.95
21401;BME280;18038;50.166;18.908;2023-04-29T02:13:02;97718.53;;;6.74;55.83
21401;BME280;18038;50.166;18.908;2023-04-29T02:16:11;97713.50;;;6.79;55.63
21401;BME280;18038;50.166;18.908;2023-04-29T02:19:28;97713.88;;;6.76;55.87
21401;BME280;18038;50.166;18.908;2023-04-29T02:22:38;97725.47;;;6.75;56.22
21401;BME280;18038;50.166;18.908;2023-04-29T02:25:45;97712.03;;;6.76;56.20
21401;BME280;18038;50.166;18.908;2023-04-29T02:28:55;97711.91;;;6.70;56.58
21401;BME280;18038;50.166;18.908;2023-04-29T02:32:01;97717.78;;;6.65;56.70
21401;BME280;18038;50.166;18.908;2023-04-29T02:35:12;97709.31;;;6.62;56.86
21401;BME280;18038;50.166;18.908;2023-04-29T02:38:18;97711.63;;;6.65;56.90
21401;BME280;18038;50.166;18.908;2023-04-29T02:41:25;97711.56;;;6.73;56.66
21401;BME280;18038;50.166;18.908;2023-04-29T02:44:33;97699.88;;;6.82;55.84
21401;BME280;18038;50.166;18.908;2023-04-29T02:47:40;97699.22;;;6.80;56.16
21401;BME280;18038;50.166;18.908;2023-04-29T02:50:46;97697.03;;;6.84;56.50
21401;BME280;18038;50.166;18.908;2023-04-29T02:53:53;97701.19;;;6.63;56.95
21401;BME280;18038;50.166;18.908;2023-04-29T02:57:00;97693.34;;;6.70;57.18
21401;BME280;18038;50.166;18.908;2023-04-29T03:00:17;97691.69;;;6.69;57.18
21401;BME280;18038;50.166;18.908;2023-04-29T03:03:23;97693.53;;;6.68;57.38
21401;BME280;18038;50.166;18.908;2023-04-29T03:06:30;97688.81;;;6.55;57.85
21401;BME280;18038;50.166;18.908;2023-04-29T03:09:36;97687.78;;;6.56;58.14
21401;BME280;18038;50.166;18.908;2023-04-29T03:12:44;97677.84;;;6.59;58.12
21401;BME280;18038;50.166;18.908;2023-04-29T03:15:52;97681.81;;;6.63;58.26
21401;BME280;18038;50.166;18.908;2023-04-29T03:19:01;97673.78;;;6.71;57.94
21401;BME280;18038;50.166;18.908;2023-04-29T03:22:06;97672.75;;;6.72;58.03
21401;BME280;18038;50.166;18.908;2023-04-29T03:25:17;97669.22;;;6.79;57.80
21401;BME280;18038;50.166;18.908;2023-04-29T03:28:43;97675.34;;;6.80;57.78
21401;BME280;18038;50.166;18.908;2023-04-29T03:31:53;97669.09;;;6.73;58.48
21401;BME280;18038;50.166;18.908;2023-04-29T03:35:00;97670.16;;;6.64;58.35
21401;BME280;18038;50.166;18.908;2023-04-29T03:38:37;97672.75;;;6.72;58.14
21401;BME280;18038;50.166;18.908;2023-04-29T03:41:43;97670.56;;;6.75;58.73
21401;BME280;18038;50.166;18.908;2023-04-29T03:44:52;97674.75;;;6.70;58.80
21401;BME280;18038;50.166;18.908;2023-04-29T03:48:01;97678.94;;;6.64;58.90
21401;BME280;18038;50.166;18.908;2023-04-29T03:51:23;97677.72;;;6.52;59.52
21401;BME280;18038;50.166;18.908;2023-04-29T03:54:41;97680.66;;;6.57;59.74
21401;BME280;18038;50.166;18.908;2023-04-29T03:57:48;97675.72;;;6.54;59.83
21401;BME280;18038;50.166;18.908;2023-04-29T04:00:54;97677.91;;;6.50;60.19
21401;BME280;18038;50.166;18.908;2023-04-29T04:04:11;97682.13;;;6.60;60.24
21401;BME280;18038;50.166;18.908;2023-04-29T04:07:21;97683.09;;;6.67;60.07
21401;BME280;18038;50.166;18.908;2023-04-29T04:10:46;97689.88;;;6.69;60.40
21401;BME280;18038;50.166;18.908;2023-04-29T04:14:17;97677.69;;;6.75;60.18
21401;BME280;18038;50.166;18.908;2023-04-29T04:17:24;97684.38;;;6.71;60.52
21401;BME280;18038;50.166;18.908;2023-04-29T04:20:35;97685.72;;;6.67;60.96
21401;BME280;18038;50.166;18.908;2023-04-29T04:23:42;97691.41;;;6.64;61.30
21401;BME280;18038;50.166;18.908;2023-04-29T04:26:54;97677.41;;;6.70;60.73
21401;BME280;18038;50.166;18.908;2023-04-29T04:30:09;97688.19;;;6.91;60.76
21401;BME280;18038;50.166;18.908;2023-04-29T04:33:19;97672.38;;;6.98;60.13
21401;BME280;18038;50.166;18.908;2023-04-29T04:36:28;97677.75;;;7.05;60.42
21401;BME280;18038;50.166;18.908;2023-04-29T04:39:35;97678.41;;;7.07;60.19
21401;BME280;18038;50.166;18.908;2023-04-29T04:42:43;97677.75;;;7.05;60.52
21401;BME280;18038;50.166;18.908;2023-04-29T04:45:50;97676.97;;;7.19;60.38
21401;BME280;18038;50.166;18.908;2023-04-29T04:48:57;97668.44;;;7.09;60.92
21401;BME280;18038;50.166;18.908;2023-04-29T04:52:11;97681.72;;;7.09;61.03
21401;BME280;18038;50.166;18.908;2023-04-29T04:55:23;97682.75;;;7.08;61.43
21401;BME280;18038;50.166;18.908;2023-04-29T04:58:31;97686.75;;;7.04;61.74
21401;BME280;18038;50.166;18.908;2023-04-29T05:01:41;97686.91;;;7.02;62.04
21401;BME280;18038;50.166;18.908;2023-04-29T05:04:48;97683.81;;;6.98;62.04
21401;BME280;18038;50.166;18.908;2023-04-29T05:07:59;97685.44;;;6.99;62.90
21401;BME280;18038;50.166;18.908;2023-04-29T05:11:15;97681.44;;;7.04;62.74
21401;BME280;18038;50.166;18.908;2023-04-29T05:14:40;97690.09;;;7.35;62.34
21401;BME280;18038;50.166;18.908;2023-04-29T05:17:48;97679.03;;;7.47;61.93
21401;BME280;18038;50.166;18.908;2023-04-29T05:20:56;97679.84;;;7.62;61.72
21401;BME280;18038;50.166;18.908;2023-04-29T05:24:05;97680.78;;;7.69;61.42
21401;BME280;18038;50.166;18.908;2023-04-29T05:27:13;97683.06;;;7.87;61.15
21401;BME280;18038;50.166;18.908;2023-04-29T05:30:20;97684.78;;;7.80;60.96
21401;BME280;18038;50.166;18.908;2023-04-29T05:33:28;97681.22;;;7.87;61.25
21401;BME280;18038;50.166;18.908;2023-04-29T05:36:34;97685.59;;;7.95;61.20
21401;BME280;18038;50.166;18.908;2023-04-29T05:39:45;97692.94;;;7.93;61.32
21401;BME280;18038;50.166;18.908;2023-04-29T05:42:58;97684.78;;;7.80;62.28
21401;BME280;18038;50.166;18.908;2023-04-29T05:46:07;97687.25;;;7.81;62.52
21401;BME280;18038;50.166;18.908;2023-04-29T05:49:13;97689.19;;;7.87;62.40
21401;BME280;18038;50.166;18.908;2023-04-29T05:52:21;97692.41;;;7.83;63.02
21401;BME280;18038;50.166;18.908;2023-04-29T05:55:33;97695.03;;;7.98;63.21
21401;BME280;18038;50.166;18.908;2023-04-29T05:58:40;97694.56;;;7.94;63.83
21401;BME280;18038;50.166;18.908;2023-04-29T06:01:53;97696.41;;;7.94;64.51
21401;BME280;18038;50.166;18.908;2023-04-29T06:05:02;97693.00;;;8.00;64.68
21401;BME280;18038;50.166;18.908;2023-04-29T06:08:17;97696.47;;;8.15;64.53
21401;BME280;18038;50.166;18.908;2023-04-29T06:11:37;97695.25;;;8.18;65.16
21401;BME280;18038;50.166;18.908;2023-04-29T06:14:42;97692.28;;;8.06;65.62
21401;BME280;18038;50.166;18.908;2023-04-29T06:17:49;97688.72;;;7.99;66.64
21401;BME280;18038;50.166;18.908;2023-04-29T06:20:57;97686.41;;;7.96;67.04
21401;BME280;18038;50.166;18.908;2023-04-29T06:24:05;97679.69;;;8.15;66.83
21401;BME280;18038;50.166;18.908;2023-04-29T06:27:14;97685.59;;;8.31;66.11
21401;BME280;18038;50.166;18.908;2023-04-29T06:30:21;97683.56;;;8.33;66.65
21401;BME280;18038;50.166;18.908;2023-04-29T06:33:27;97687.72;;;8.21;66.71
21401;BME280;18038;50.166;18.908;2023-04-29T06:36:36;97679.00;;;8.27;67.09
21401;BME280;18038;50.166;18.908;2023-04-29T06:40:09;97673.97;;;8.18;68.01
21401;BME280;18038;50.166;18.908;2023-04-29T06:43:49;97681.00;;;8.40;66.68
21401;BME280;18038;50.166;18.908;2023-04-29T06:47:21;97677.38;;;8.69;66.33
21401;BME280;18038;50.166;18.908;2023-04-29T06:50:56;97685.78;;;8.73;66.35
21401;BME280;18038;50.166;18.908;2023-04-29T06:54:03;97686.75;;;8.65;66.72
21401;BME280;18038;50.166;18.908;2023-04-29T06:57:10;97686.22;;;8.55;66.56
21401;BME280;18038;50.166;18.908;2023-04-29T07:00:28;97683.81;;;8.60;67.09
21401;BME280;18038;50.166;18.908;2023-04-29T07:03:34;97679.56;;;8.66;67.18
21401;BME280;18038;50.166;18.908;2023-04-29T07:06:44;97677.09;;;8.86;67.19
21401;BME280;18038;50.166;18.908;2023-04-29T07:09:53;97674.22;;;8.87;66.90
21401;BME280;18038;50.166;18.908;2023-04-29T07:12:59;97676.78;;;8.95;66.45
21401;BME280;18038;50.166;18.908;2023-04-29T07:16:16;97680.78;;;9.06;65.82
21401;BME280;18038;50.166;18.908;2023-04-29T07:19:30;97674.75;;;8.97;66.16
21401;BME280;18038;50.166;18.908;2023-04-29T07:22:36;97674.28;;;8.94;66.29
21401;BME280;18038;50.166;18.908;2023-04-29T07:25:42;97675.78;;;8.96;66.46
21401;BME280;18038;50.166;18.908;2023-04-29T07:28:56;97682.56;;;8.99;66.23
21401;BME280;18038;50.166;18.908;2023-04-29T07:32:07;97684.19;;;9.00;66.27
21401;BME280;18038;50.166;18.908;2023-04-29T07:35:14;97684.19;;;8.79;66.53
21401;BME280;18038;50.166;18.908;2023-04-29T07:38:22;97686.94;;;8.85;67.03
21401;BME280;18038;50.166;18.908;2023-04-29T07:41:29;97686.41;;;9.18;65.92
21401;BME280;18038;50.166;18.908;2023-04-29T07:44:35;97681.84;;;9.12;65.91
21401;BME280;18038;50.166;18.908;2023-04-29T07:47:51;97686.81;;;9.22;64.95
21401;BME280;18038;50.166;18.908;2023-04-29T07:50:57;97685.34;;;9.12;65.22
21401;BME280;18038;50.166;18.908;2023-04-29T07:54:04;97682.84;;;9.11;65.06
21401;BME280;18038;50.166;18.908;2023-04-29T07:57:10;97685.97;;;9.14;65.51
21401;BME280;18038;50.166;18.908;2023-04-29T08:00:21;97689.06;;;9.18;64.83
21401;BME280;18038;50.166;18.908;2023-04-29T08:03:29;97695.22;;;9.53;64.80
21401;BME280;18038;50.166;18.908;2023-04-29T08:06:38;97689.31;;;9.30;64.99
21401;BME280;18038;50.166;18.908;2023-04-29T08:09:46;97687.22;;;9.47;64.87
21401;BME280;18038;50.166;18.908;2023-04-29T08:12:53;97691.88;;;9.73;63.79
21401;BME280;18038;50.166;18.908;2023-04-29T08:15:59;97692.09;;;9.78;64.29
21401;BME280;18038;50.166;18.908;2023-04-29T08:19:08;97685.38;;;9.95;63.40
21401;BME280;18038;50.166;18.908;2023-04-29T08:22:15;97673.09;;;10.01;61.95
21401;BME280;18038;50.166;18.908;2023-04-29T08:25:21;97682.63;;;10.23;61.95
21401;BME280;18038;50.166;18.908;2023-04-29T08:28:28;97681.13;;;10.82;61.08
21401;BME280;18038;50.166;18.908;2023-04-29T08:31:35;97683.56;;;11.37;58.25
21401;BME280;18038;50.166;18.908;2023-04-29T08:34:44;97691.59;;;11.04;59.48
21401;BME280;18038;50.166;18.908;2023-04-29T08:37:57;97680.44;;;11.53;56.83
21401;BME280;18038;50.166;18.908;2023-04-29T08:41:07;97688.28;;;11.55;57.25
21401;BME280;18038;50.166;18.908;2023-04-29T08:44:21;97689.63;;;11.91;57.62
21401;BME280;18038;50.166;18.908;2023-04-29T08:47:29;97689.09;;;12.59;56.08
21401;BME280;18038;50.166;18.908;2023-04-29T08:50:46;97680.56;;;12.68;54.76
21401;BME280;18038;50.166;18.908;2023-04-29T08:53:53;97682.22;;;12.69;54.55
21401;BME280;18038;50.166;18.908;2023-04-29T08:57:02;97678.66;;;12.76;53.65
21401;BME280;18038;50.166;18.908;2023-04-29T09:00:17;97681.97;;;12.46;53.81
21401;BME280;18038;50.166;18.908;2023-04-29T09:03:42;97673.31;;;12.76;53.03
21401;BME280;18038;50.166;18.908;2023-04-29T09:06:55;97664.66;;;13.30;51.88
21401;BME280;18038;50.166;18.908;2023-04-29T09:10:10;97672.16;;;14.02;50.15
21401;BME280;18038;50.166;18.908;2023-04-29T09:13:31;97674.75;;;15.11;47.74
21401;BME280;18038;50.166;18.908;2023-04-29T09:16:38;97671.00;;;15.59;46.80
21401;BME280;18038;50.166;18.908;2023-04-29T09:19:44;97676.94;;;16.37;43.75
21401;BME280;18038;50.166;18.908;2023-04-29T09:22:55;97677.19;;;15.60;44.75
21401;BME280;18038;50.166;18.908;2023-04-29T09:26:06;97678.00;;;14.59;47.68
21401;BME280;18038;50.166;18.908;2023-04-29T09:29:13;97680.00;;;14.34;48.57
21401;BME280;18038;50.166;18.908;2023-04-29T09:32:19;97687.53;;;13.33;50.08
21401;BME280;18038;50.166;18.908;2023-04-29T09:35:27;97677.59;;;13.33;50.97
21401;BME280;18038;50.166;18.908;2023-04-29T09:38:36;97680.28;;;13.33;51.12
21401;BME280;18038;50.166;18.908;2023-04-29T09:42:00;97681.31;;;13.14;52.14
21401;BME280;18038;50.166;18.908;2023-04-29T09:45:08;97674.50;;;12.86;52.28
21401;BME280;18038;50.166;18.908;2023-04-29T09:48:30;97686.47;;;12.84;53.46
21401;BME280;18038;50.166;18.908;2023-04-29T09:51:51;97683.09;;;12.63;53.29
21401;BME280;18038;50.166;18.908;2023-04-29T09:55:04;97685.69;;;12.77;54.08
21401;BME280;18038;50.166;18.908;2023-04-29T09:58:33;97684.63;;;12.46;54.42
21401;BME280;18038;50.166;18.908;2023-04-29T10:01:42;97677.88;;;12.68;54.22
21401;BME280;18038;50.166;18.908;2023-04-29T10:04:53;97688.78;;;13.05;52.79
21401;BME280;18038;50.166;18.908;2023-04-29T10:08:22;97682.28;;;13.20;52.63
21401;BME280;18038;50.166;18.908;2023-04-29T10:11:32;97673.63;;;13.43;52.73
21401;BME280;18038;50.166;18.908;2023-04-29T10:14:44;97676.66;;;13.46;52.54
21401;BME280;18038;50.166;18.908;2023-04-29T10:18:03;97681.75;;;13.29;51.71
21401;BME280;18038;50.166;18.908;2023-04-29T10:21:26;97675.38;;;13.30;52.72
21401;BME280;18038;50.166;18.908;2023-04-29T10:24:35;97687.44;;;13.40;51.87
21401;BME280;18038;50.166;18.908;2023-04-29T10:27:47;97682.22;;;13.45;51.61
21401;BME280;18038;50.166;18.908;2023-04-29T10:30:57;97682.84;;;13.47;52.15
21401;BME280;18038;50.166;18.908;2023-04-29T10:34:06;97681.00;;;12.97;53.30
21401;BME280;18038;50.166;18.908;2023-04-29T10:37:13;97681.09;;;12.84;54.06
21401;BME280;18038;50.166;18.908;2023-04-29T10:40:26;97681.50;;;12.87;53.68
21401;BME280;18038;50.166;18.908;2023-04-29T10:43:44;97687.84;;;12.61;53.52
21401;BME280;18038;50.166;18.908;2023-04-29T10:47:18;97684.56;;;12.59;53.98
21401;BME280;18038;50.166;18.908;2023-04-29T10:50:27;97683.00;;;12.45;54.22
21401;BME280;18038;50.166;18.908;2023-04-29T10:53:34;97680.53;;;12.43;54.97
21401;BME280;18038;50.166;18.908;2023-04-29T10:56:43;97683.00;;;12.45;54.53
21401;BME280;18038;50.166;18.908;2023-04-29T10:59:56;97680.44;;;12.57;54.75
21401;BME280;18038;50.166;18.908;2023-04-29T11:03:45;97676.25;;;12.67;54.38
21401;BME280;18038;50.166;18.908;2023-04-29T11:06:59;97678.94;;;12.67;54.34
21401;BME280;18038;50.166;18.908;2023-04-29T11:10:15;97673.81;;;12.66;55.01
21401;BME280;18038;50.166;18.908;2023-04-29T11:13:38;97687.44;;;12.58;55.88
21401;BME280;18038;50.166;18.908;2023-04-29T11:16:52;97694.31;;;12.47;57.14
21401;BME280;18038;50.166;18.908;2023-04-29T11:20:12;97687.38;;;12.33;59.12
21401;BME280;18038;50.166;18.908;2023-04-29T11:23:23;97691.50;;;11.90;61.67
21401;BME280;18038;50.166;18.908;2023-04-29T11:26:31;97690.53;;;11.71;63.73
21401;BME280;18038;50.166;18.908;2023-04-29T11:29:38;97683.53;;;11.44;65.20
21401;BME280;18038;50.166;18.908;2023-04-29T11:32:48;97684.59;;;11.29;66.48
21401;BME280;18038;50.166;18.908;2023-04-29T11:35:54;97691.38;;;11.32;66.91
21401;BME280;18038;50.166;18.908;2023-04-29T11:39:03;97696.72;;;11.25;67.29
21401;BME280;18038;50.166;18.908;2023-04-29T11:42:09;97705.56;;;11.32;68.47
21401;BME280;18038;50.166;18.908;2023-04-29T11:45:17;97704.72;;;11.38;69.04
21401;BME280;18038;50.166;18.908;2023-04-29T11:48:29;97697.31;;;11.54;68.28
21401;BME280;18038;50.166;18.908;2023-04-29T11:51:35;97695.72;;;11.26;67.55
21401;BME280;18038;50.166;18.908;2023-04-29T11:54:42;97701.41;;;11.76;67.95
21401;BME280;18038;50.166;18.908;2023-04-29T11:57:53;97700.91;;;12.06;66.54
21401;BME280;18038;50.166;18.908;2023-04-29T12:00:59;97693.16;;;12.68;64.08
21401;BME280;18038;50.166;18.908;2023-04-29T12:04:10;97687.09;;;13.54;63.27
21401;BME280;18038;50.166;18.908;2023-04-29T12:07:17;97683.78;;;14.44;60.85
21401;BME280;18038;50.166;18.908;2023-04-29T12:10:27;97686.34;;;14.81;59.00
21401;BME280;18038;50.166;18.908;2023-04-29T12:13:33;97679.56;;;15.21;55.47
21401;BME280;18038;50.166;18.908;2023-04-29T12:16:47;97683.03;;;15.80;53.83
21401;BME280;18038;50.166;18.908;2023-04-29T12:19:58;97673.19;;;15.97;52.43
21401;BME280;18038;50.166;18.908;2023-04-29T12:23:18;97676.16;;;15.37;52.31
21401;BME280;18038;50.166;18.908;2023-04-29T12:26:29;97677.09;;;15.07;50.99
21401;BME280;18038;50.166;18.908;2023-04-29T12:29:37;97677.22;;;15.24;49.75
21401;BME280;18038;50.166;18.908;2023-04-29T12:32:44;97675.34;;;15.37;49.55
21401;BME280;18038;50.166;18.908;2023-04-29T12:35:55;97676.25;;;15.54;49.02
21401;BME280;18038;50.166;18.908;2023-04-29T12:39:05;97675.69;;;15.40;49.79
21401;BME280;18038;50.166;18.908;2023-04-29T12:42:15;97663.16;;;14.57;53.57
21401;BME280;18038;50.166;18.908;2023-04-29T12:45:26;97661.22;;;14.45;53.99
21401;BME280;18038;50.166;18.908;2023-04-29T12:48:36;97654.38;;;14.50;54.79
21401;BME280;18038;50.166;18.908;2023-04-29T12:51:46;97651.94;;;14.60;55.31
21401;BME280;18038;50.166;18.908;2023-04-29T12:54:53;97645.72;;;14.48;56.28
21401;BME280;18038;50.166;18.908;2023-04-29T12:58:03;97648.13;;;13.70;55.29
21401;BME280;18038;50.166;18.908;2023-04-29T13:01:18;97646.94;;;14.03;54.67
21401;BME280;18038;50.166;18.908;2023-04-29T13:04:26;97644.22;;;14.52;54.11
21401;BME280;18038;50.166;18.908;2023-04-29T13:07:44;97647.41;;;14.72;54.20
21401;BME280;18038;50.166;18.908;2023-04-29T13:10:50;97640.66;;;14.39;54.59
21401;BME280;18038;50.166;18.908;2023-04-29T13:13:58;97643.41;;;13.84;57.42
21401;BME280;18038;50.166;18.908;2023-04-29T13:17:14;97640.69;;;13.72;58.21
21401;BME280;18038;50.166;18.908;2023-04-29T13:20:21;97636.28;;;13.59;57.35
21401;BME280;18038;50.166;18.908;2023-04-29T13:23:36;97634.28;;;13.11;56.87
21401;BME280;18038;50.166;18.908;2023-04-29T13:26:43;97632.75;;;13.22;56.87
21401;BME280;18038;50.166;18.908;2023-04-29T13:29:53;97636.41;;;14.20;53.89
21401;BME280;18038;50.166;18.908;2023-04-29T13:33:01;97631.41;;;14.77;52.86
21401;BME280;18038;50.166;18.908;2023-04-29T13:36:14;97626.28;;;14.34;52.85
21401;BME280;18038;50.166;18.908;2023-04-29T13:39:23;97633.00;;;14.55;51.34
21401;BME280;18038;50.166;18.908;2023-04-29T13:42:29;97627.13;;;14.16;51.90
21401;BME280;18038;50.166;18.908;2023-04-29T13:45:49;97618.53;;;13.95;52.59
21401;BME280;18038;50.166;18.908;2023-04-29T13:48:58;97618.41;;;14.20;54.06
21401;BME280;18038;50.166;18.908;2023-04-29T13:52:26;97621.31;;;14.61;52.76
21401;BME280;18038;50.166;18.908;2023-04-29T13:55:38;97611.75;;;14.65;52.12
21401;BME280;18038;50.166;18.908;2023-04-29T13:59:05;97611.63;;;13.88;54.48
21401;BME280;18038;50.166;18.908;2023-04-29T14:02:14;97611.69;;;13.63;55.29
21401;BME280;18038;50.166;18.908;2023-04-29T14:05:24;97608.78;;;13.02;57.86
21401;BME280;18038;50.166;18.908;2023-04-29T14:08:30;97618.91;;;13.25;57.94
21401;BME280;18038;50.166;18.908;2023-04-29T14:11:40;97614.28;;;13.32;57.81
21401;BME280;18038;50.166;18.908;2023-04-29T14:14:46;97619.72;;;13.44;56.92
21401;BME280;18038;50.166;18.908;2023-04-29T14:17:53;97621.00;;;13.60;56.96
21401;BME280;18038;50.166;18.908;2023-04-29T14:20:59;97623.16;;;13.51;56.84
21401;BME280;18038;50.166;18.908;2023-04-29T14:24:06;97626.88;;;13.50;57.00
21401;BME280;18038;50.166;18.908;2023-04-29T14:27:15;97616.44;;;13.97;56.24
21401;BME280;18038;50.166;18.908;2023-04-29T14:30:29;97615.31;;;13.87;56.53
21401;BME280;18038;50.166;18.908;2023-04-29T14:33:35;97621.03;;;14.09;55.99
21401;BME280;18038;50.166;18.908;2023-04-29T14:36:53;97622.16;;;14.19;55.57
21401;BME280;18038;50.166;18.908;2023-04-29T14:40:00;97620.75;;;14.17;54.93
21401;BME280;18038;50.166;18.908;2023-04-29T14:43:13;97619.84;;;14.35;53.76
21401;BME280;18038;50.166;18.908;2023-04-29T14:46:33;97622.97;;;14.62;54.41
21401;BME280;18038;50.166;18.908;2023-04-29T14:49:40;97619.91;;;14.46;53.36
21401;BME280;18038;50.166;18.908;2023-04-29T14:52:46;97626.53;;;14.14;53.57
21401;BME280;18038;50.166;18.908;2023-04-29T14:55:53;97626.00;;;13.93;54.71
21401;BME280;18038;50.166;18.908;2023-04-29T14:59:01;97625.41;;;13.54;57.00
21401;BME280;18038;50.166;18.908;2023-04-29T15:02:11;97625.75;;;13.76;56.75
21401;BME280;18038;50.166;18.908;2023-04-29T15:05:17;97622.25;;;13.94;56.79
21401;BME280;18038;50.166;18.908;2023-04-29T15:08:23;97621.31;;;14.19;56.30
21401;BME280;18038;50.166;18.908;2023-04-29T15:11:36;97633.88;;;14.37;55.12
21401;BME280;18038;50.166;18.908;2023-04-29T15:14:46;97621.59;;;14.29;54.40
21401;BME280;18038;50.166;18.908;2023-04-29T15:17:54;97633.19;;;14.11;55.87
21401;BME280;18038;50.166;18.908;2023-04-29T15:21:01;97632.03;;;14.07;56.01
21401;BME280;18038;50.166;18.908;2023-04-29T15:24:08;97626.22;;;13.55;55.80
21401;BME280;18038;50.166;18.908;2023-04-29T15:27:16;97625.19;;;13.56;56.01
21401;BME280;18038;50.166;18.908;2023-04-29T15:30:30;97626.13;;;13.80;55.97
21401;BME280;18038;50.166;18.908;2023-04-29T15:33:37;97637.31;;;13.95;54.97
21401;BME280;18038;50.166;18.908;2023-04-29T15:36:51;97640.84;;;13.96;55.03
21401;BME280;18038;50.166;18.908;2023-04-29T15:39:59;97641.94;;;13.70;55.28
21401;BME280;18038;50.166;18.908;2023-04-29T15:43:17;97635.06;;;13.55;56.15
21401;BME280;18038;50.166;18.908;2023-04-29T15:46:29;97639.03;;;13.53;56.74
21401;BME280;18038;50.166;18.908;2023-04-29T15:49:35;97633.94;;;13.45;57.59
21401;BME280;18038;50.166;18.908;2023-04-29T15:52:42;97641.28;;;13.38;57.59
21401;BME280;18038;50.166;18.908;2023-04-29T15:55:48;97646.47;;;13.32;58.42
21401;BME280;18038;50.166;18.908;2023-04-29T15:58:55;97642.91;;;13.13;58.92
21401;BME280;18038;50.166;18.908;2023-04-29T16:02:16;97649.25;;;13.01;60.45
21401;BME280;18038;50.166;18.908;2023-04-29T16:05:25;97656.94;;;12.90;61.16
21401;BME280;18038;50.166;18.908;2023-04-29T16:08:33;97651.97;;;12.62;62.03
21401;BME280;18038;50.166;18.908;2023-04-29T16:11:41;97650.00;;;12.51;62.37
21401;BME280;18038;50.166;18.908;2023-04-29T16:14:55;97655.69;;;12.30;62.88
21401;BME280;18038;50.166;18.908;2023-04-29T16:18:05;97653.22;;;12.28;61.40
21401;BME280;18038;50.166;18.908;2023-04-29T16:21:11;97659.06;;;12.12;61.69
21401;BME280;18038;50.166;18.908;2023-04-29T16:24:18;97649.53;;;11.84;62.96
21401;BME280;18038;50.166;18.908;2023-04-29T16:27:24;97655.31;;;11.68;63.94
21401;BME280;18038;50.166;18.908;2023-04-29T16:30:33;97648.94;;;11.62;64.19
21401;BME280;18038;50.166;18.908;2023-04-29T16:33:44;97649.97;;;11.68;64.69
21401;BME280;18038;50.166;18.908;2023-04-29T16:36:52;97648.38;;;11.40;66.29
21401;BME280;18038;50.166;18.908;2023-04-29T16:40:01;97654.75;;;11.46;66.63
21401;BME280;18038;50.166;18.908;2023-04-29T16:43:08;97655.22;;;11.16;68.20
21401;BME280;18038;50.166;18.908;2023-04-29T16:46:16;97659.91;;;11.27;68.70